Pueblo Pintado, New Mexico
Current Conditions -  °F | °C
As of 6:15 PM on Tuesday 27 Jan 2015 (Local Time) from KLAM Reporting Station
Clear Clear  
Wind Chill: 43°   Ceiling: Unl
Heat Index: 48°   Visibility: 10mi
Dew Point: 33°   Wind: 9mph
Humidity: 57%   Direction: 260°W
Pressure: 30.29"   Gusts: NA
Location:  36.0303°N, 107.257°W
Report Text: KLAM 280115Z AUTO 26008KT 10SM CLR 09/01 A3029 RMK AO2 T00870005
Loading
Personal Weather Stations






























Interactive Weather Map New forecast layout! Learn more

10-Day Weather Forecast

Advertisements
Track Severe Weather on mobile